Time;durP1;ratioP1;P1;durP2;ratioP2;P2;SDS_P1;SDS_P2;PMS_P1;PMS_P2;Temp;Humidity;BMP_temperature;BMP_pressure;BME280_temperature;BME280_humidity;BME280_pressure;Samples;Min_cycle;Max_cycle;Signal;HPM_P1;HPM_P2
2021/09/01 00:01:05;;;;;;;0.10;0.10;;;;;;;22.90;52.58;99005.25;6304876;22;20019;-65
2021/09/01 00:49:39;;;;;;;0.10;0.10;;;;;;;22.74;53.45;98996.41;6273095;22;20461;-66
2021/09/01 00:52:05;;;;;;;0.10;0.10;;;;;;;22.75;53.54;98998.06;6273017;22;20106;-65
2021/09/01 00:54:32;;;;;;;0.45;0.45;;;;;;;22.73;53.71;98994.78;6272794;22;20050;-66
2021/09/01 00:57:02;;;;;;;0.10;0.10;;;;;;;22.60;53.67;98967.94;6245678;22;20106;-65
2021/09/01 00:59:30;;;;;;;0.10;0.10;;;;;;;22.71;53.73;98978.13;6246229;22;20026;-65
2021/09/01 01:01:56;;;;;;;0.10;0.10;;;;;;;22.71;53.74;98969.31;6245925;22;20554;-65
2021/09/01 01:04:24;;;;;;;0.22;0.22;;;;;;;22.69;53.95;98955.38;6272965;22;20058;-66
2021/09/01 01:06:50;;;;;;;0.10;0.10;;;;;;;22.71;53.69;98962.16;6272975;22;20016;-66
2021/09/01 01:09:16;;;;;;;0.17;0.17;;;;;;;22.70;53.67;98962.38;6245824;22;20043;-65
2021/09/01 01:12:21;;;;;;;0.40;0.40;;;;;;;22.71;53.79;98959.50;6273708;22;20023;-65
2021/09/01 01:14:53;;;;;;;0.10;0.10;;;;;;;22.66;53.74;98945.94;6208850;23;20203;-66
2021/09/01 01:17:19;;;;;;;0.40;0.40;;;;;;;22.72;53.62;98947.88;6191720;22;20126;-66
2021/09/01 01:19:48;;;;;;;0.10;0.10;;;;;;;22.71;53.73;98940.88;6245962;22;20023;-66
2021/09/01 01:22:21;;;;;;;0.10;0.10;;;;;;;22.73;53.63;98946.88;6245813;22;20114;-66
2021/09/01 01:25:06;;;;;;;0.20;0.20;;;;;;;22.74;53.56;98943.16;6272866;22;20019;-66
2021/09/01 01:27:42;;;;;;;0.10;0.10;;;;;;;22.67;53.52;98931.63;6273142;22;20022;-66
2021/09/01 01:30:11;;;;;;;0.10;0.10;;;;;;;22.66;53.63;98924.66;6271033;22;20046;-67
2021/09/01 01:32:37;;;;;;;0.20;0.20;;;;;;;22.72;53.70;98936.38;6273028;22;20012;-63
2021/09/01 01:35:04;;;;;;;0.10;0.10;;;;;;;22.70;53.68;98925.94;6272275;22;20157;-63
2021/09/01 01:37:30;;;;;;;0.10;0.10;;;;;;;22.64;53.75;98905.31;6272709;22;20019;-62
2021/09/01 01:39:56;;;;;;;0.25;0.25;;;;;;;22.73;53.51;98914.94;6272702;22;20359;-63
2021/09/01 01:42:22;;;;;;;0.10;0.10;;;;;;;22.73;53.55;98903.44;6272549;22;20019;-63
2021/09/01 01:44:48;;;;;;;0.10;0.10;;;;;;;22.65;53.72;98888.38;6272693;22;20019;-62
2021/09/01 01:47:14;;;;;;;0.00;0.00;;;;;;;22.70;53.55;98901.16;6273765;22;20012;-63
2021/09/01 01:49:40;;;;;;;0.10;0.10;;;;;;;22.70;53.54;98902.00;6303378;22;20046;-63
2021/09/01 01:52:07;;;;;;;0.10;0.10;;;;;;;22.69;53.54;98886.19;6303389;22;20015;-63
2021/09/01 01:54:32;;;;;;;0.10;0.10;;;;;;;22.70;53.67;98871.88;6303236;22;20359;-63
2021/09/01 01:56:59;;;;;;;0.10;0.10;;;;;;;22.68;53.54;98869.41;6303287;22;20043;-63
2021/09/01 01:59:25;;;;;;;0.20;0.20;;;;;;;22.67;53.71;98873.09;6276063;22;20025;-63
2021/09/01 02:02:06;;;;;;;0.20;0.20;;;;;;;22.67;53.66;98862.44;6303757;22;20025;-67
2021/09/01 02:04:37;;;;;;;0.10;0.10;;;;;;;22.69;53.62;98854.25;6303732;22;20026;-66
2021/09/01 02:07:02;;;;;;;0.10;0.10;;;;;;;22.68;53.75;98855.25;6303079;22;20015;-66
2021/09/01 02:09:29;;;;;;;0.10;0.10;;;;;;;22.66;53.50;98850.13;6303203;22;20024;-66
2021/09/01 02:11:55;;;;;;;0.20;0.20;;;;;;;22.66;53.49;98843.97;6302984;22;20459;-66
2021/09/01 02:14:21;;;;;;;0.10;0.10;;;;;;;22.59;53.61;98822.59;6303019;22;20015;-66
2021/09/01 02:16:47;;;;;;;0.10;0.10;;;;;;;22.67;53.47;98838.50;6303333;22;20512;-66
2021/09/01 02:19:12;;;;;;;0.15;0.15;;;;;;;22.63;53.45;98818.53;6302809;22;20042;-65
2021/09/01 02:21:39;;;;;;;0.52;0.52;;;;;;;22.67;53.43;98827.84;6275655;22;20159;-65
2021/09/01 02:24:05;;;;;;;0.30;0.30;;;;;;;22.58;53.57;98799.63;6275471;22;20015;-65
2021/09/01 02:26:31;;;;;;;0.10;0.10;;;;;;;22.68;53.60;98816.16;6303063;22;20038;-65
2021/09/01 02:28:57;;;;;;;0.20;0.20;;;;;;;22.67;53.45;98814.53;6275443;22;20346;-65
2021/09/01 02:31:23;;;;;;;0.10;0.10;;;;;;;22.68;53.53;98815.34;6303081;22;20094;-65
2021/09/01 02:33:49;;;;;;;0.20;0.20;;;;;;;22.68;53.40;98816.16;6275962;22;20027;-64
2021/09/01 02:36:15;;;;;;;0.17;0.17;;;;;;;22.69;53.48;98812.50;6302769;22;20030;-66
2021/09/01 02:38:48;;;;;;;0.10;0.10;;;;;;;22.69;53.54;98807.19;6303431;22;20437;-69
2021/09/01 02:41:39;;;;;;;0.20;0.20;;;;;;;22.69;53.54;98812.50;6227242;22;20022;-67
2021/09/01 02:44:09;;;;;;;0.10;0.10;;;;;;;22.70;53.41;98811.50;6250478;22;20470;-66
2021/09/01 02:46:39;;;;;;;0.10;0.10;;;;;;;22.71;53.53;98813.13;6304698;22;20019;-66
2021/09/01 02:49:07;;;;;;;0.10;0.10;;;;;;;22.67;53.57;98798.56;6276499;22;20026;-67
2021/09/01 02:51:36;;;;;;;;;;;;;;;22.71;53.53;98802.50;6278612;22;20072;-67
2021/09/01 02:54:06;;;;;;;0.15;0.15;;;;;;;22.63;53.61;98778.63;6277206;22;19953;-65
2021/09/01 02:56:39;;;;;;;0.10;0.10;;;;;;;22.68;53.54;98789.56;6304011;22;20526;-66
2021/09/01 02:59:05;;;;;;;0.28;0.28;;;;;;;22.68;53.48;98810.84;6275451;22;20045;-66
2021/09/01 03:01:32;;;;;;;0.10;0.10;;;;;;;22.69;53.48;98811.69;6303800;22;20015;-66
2021/09/01 03:04:08;;;;;;;0.30;0.30;;;;;;;22.63;53.50;98801.75;6278077;22;20451;-66
2021/09/01 03:06:34;;;;;;;0.10;0.10;;;;;;;22.67;53.58;98801.25;6275714;22;20019;-67
2021/09/01 03:09:00;;;;;;;0.10;0.10;;;;;;;22.67;53.47;98803.91;6249901;22;20022;-67
2021/09/01 03:11:26;;;;;;;0.15;0.15;;;;;;;22.68;53.50;98805.53;6302989;22;20021;-66
2021/09/01 03:13:52;;;;;;;0.10;0.10;;;;;;;22.68;53.54;98810.84;6275663;22;20057;-67
2021/09/01 03:16:18;;;;;;;0.10;0.10;;;;;;;22.65;53.46;98803.22;6302645;22;20092;-66
2021/09/01 03:18:44;;;;;;;0.10;0.10;;;;;;;22.68;53.54;98794.88;6302729;22;20019;-66
2021/09/01 03:21:11;;;;;;;0.10;0.10;;;;;;;22.67;53.62;98790.59;6302699;22;20041;-66
2021/09/01 03:23:36;;;;;;;0.10;0.10;;;;;;;22.62;53.80;98771.66;6275882;22;20016;-66
2021/09/01 03:26:03;;;;;;;0.20;0.20;;;;;;;22.62;53.93;98758.34;6304039;22;20022;-67
2021/09/01 03:28:29;;;;;;;0.10;0.10;;;;;;;22.61;54.00;98762.00;6275723;22;20019;-66
2021/09/01 03:30:56;;;;;;;0.20;0.20;;;;;;;22.60;53.80;98759.56;6276191;22;20015;-62
2021/09/01 03:33:22;;;;;;;0.10;0.10;;;;;;;22.62;53.69;98763.66;6303883;22;20011;-64
2021/09/01 03:35:48;;;;;;;0.10;0.10;;;;;;;22.67;53.66;98769.31;6252433;22;20023;-67
2021/09/01 03:38:15;;;;;;;0.10;0.10;;;;;;;22.68;53.63;98767.44;6304386;22;20011;-67
2021/09/01 03:40:41;;;;;;;0.20;0.20;;;;;;;22.71;53.49;98759.91;6304782;22;20513;-66
2021/09/01 03:43:07;;;;;;;0.20;0.20;;;;;;;22.75;53.46;98755.03;6304418;22;20058;-65
2021/09/01 03:45:33;;;;;;;0.10;0.10;;;;;;;22.76;53.22;98749.53;6304623;22;20015;-65
2021/09/01 03:47:59;;;;;;;0.10;0.10;;;;;;;22.80;53.07;98739.34;6277436;22;20478;-63
2021/09/01 03:50:29;;;;;;;0.20;0.20;;;;;;;22.81;53.02;98725.81;6305002;22;20015;-66
2021/09/01 03:53:05;;;;;;;0.10;0.10;;;;;;;22.83;53.08;98726.47;6256005;22;20154;-65
2021/09/01 03:55:31;;;;;;;0.30;0.30;;;;;;;22.87;52.96;98728.75;6227907;22;20489;-64
2021/09/01 03:57:57;;;;;;;0.10;0.10;;;;;;;22.89;52.82;98727.56;6305529;22;20019;-65
2021/09/01 04:00:23;;;;;;;0.10;0.10;;;;;;;22.91;52.83;98725.50;6305817;22;20015;-65
2021/09/01 04:02:49;;;;;;;0.20;0.20;;;;;;;22.93;52.76;98730.66;6278355;22;20454;-67
2021/09/01 04:05:15;;;;;;;0.15;0.15;;;;;;;22.95;52.59;98731.28;6305186;22;20015;-62
2021/09/01 04:07:41;;;;;;;0.10;0.10;;;;;;;22.98;52.46;98730.91;6305681;22;20102;-64
2021/09/01 04:10:07;;;;;;;0.20;0.20;;;;;;;23.00;52.46;98735.03;6304758;22;20042;-64
2021/09/01 04:12:34;;;;;;;0.10;0.10;;;;;;;23.00;52.43;98723.56;6278371;22;20384;-65
2021/09/01 04:14:59;;;;;;;0.10;0.10;;;;;;;23.03;52.35;98733.84;6278613;22;20027;-62
2021/09/01 04:17:30;;;;;;;0.28;0.25;;;;;;;23.03;52.40;98734.66;6304643;22;20413;-64
2021/09/01 04:19:56;;;;;;;0.10;0.10;;;;;;;23.02;52.37;98734.84;6305287;22;20019;-63
2021/09/01 04:22:23;;;;;;;0.10;0.10;;;;;;;23.04;52.38;98727.47;6277500;22;20065;-65
2021/09/01 04:24:48;;;;;;;0.10;0.10;;;;;;;23.01;52.27;98728.69;6304715;22;20023;-65
2021/09/01 04:27:20;;;;;;;0.10;0.10;;;;;;;22.95;52.42;98717.97;6277623;22;20019;-65
2021/09/01 04:30:11;;;;;;;0.10;0.10;;;;;;;22.91;52.52;98716.69;6283880;22;20488;-66
2021/09/01 04:32:36;;;;;;;0.10;0.10;;;;;;;22.95;52.62;98715.31;6305324;22;20557;-64
2021/09/01 04:35:05;;;;;;;0.35;0.35;;;;;;;22.94;52.57;98719.00;6277808;22;20023;-64
2021/09/01 04:37:32;;;;;;;0.25;0.25;;;;;;;22.88;52.56;98719.75;6305085;22;20015;-64
2021/09/01 04:39:58;;;;;;;5.68;0.47;;;;;;;22.89;52.41;98721.41;6278416;22;20019;-66
2021/09/01 04:42:24;;;;;;;0.25;0.25;;;;;;;22.87;52.63;98724.28;6278421;22;20034;-63
2021/09/01 04:44:50;;;;;;;0.13;0.13;;;;;;;22.88;52.71;98717.09;6251580;22;20024;-63
2021/09/01 04:47:16;;;;;;;0.10;0.10;;;;;;;22.88;52.90;98714.41;6304854;22;20358;-66
2021/09/01 04:49:42;;;;;;;0.10;0.10;;;;;;;22.87;52.67;98708.28;6305029;22;20015;-64
2021/09/01 04:52:08;;;;;;;3.40;1.17;;;;;;;22.83;52.62;98697.19;6304954;22;20458;-62
2021/09/01 04:54:35;;;;;;;0.10;0.10;;;;;;;22.88;52.52;98701.09;6304437;22;20415;-63
2021/09/01 04:57:01;;;;;;;0.28;0.28;;;;;;;22.88;52.57;98698.44;6277030;22;20089;-66
2021/09/01 04:59:27;;;;;;;0.10;0.10;;;;;;;22.91;52.42;98692.75;6276748;22;20023;-64
2021/09/01 05:01:56;;;;;;;9.10;0.90;;;;;;;22.95;52.46;98692.19;6304361;22;20027;-64
2021/09/01 05:04:22;;;;;;;0.10;0.10;;;;;;;22.98;52.32;98690.97;6303834;22;20459;-66
2021/09/01 05:06:47;;;;;;;0.10;0.10;;;;;;;23.02;52.32;98685.06;6303874;22;20015;-64
2021/09/01 05:09:13;;;;;;;0.10;0.10;;;;;;;23.00;52.03;98680.97;6303901;22;20023;-65
2021/09/01 05:11:39;;;;;;;0.17;0.17;;;;;;;23.02;52.23;98668.28;6251394;22;20430;-65
2021/09/01 05:14:05;;;;;;;0.10;0.10;;;;;;;23.10;51.97;98673.47;6303715;22;20018;-63
2021/09/01 05:16:31;;;;;;;0.13;0.13;;;;;;;23.12;51.85;98668.78;6303606;22;20101;-64
2021/09/01 05:18:57;;;;;;;0.10;0.10;;;;;;;23.12;51.83;98664.28;6303487;22;20459;-64
2021/09/01 05:21:24;;;;;;;0.10;0.10;;;;;;;23.09;51.93;98661.16;6275959;22;20019;-63
2021/09/01 05:23:50;;;;;;;0.10;0.10;;;;;;;23.12;51.75;98658.13;6251012;22;20458;-65
2021/09/01 05:26:16;;;;;;;0.10;0.10;;;;;;;23.19;51.60;98657.16;6251568;22;20031;-64
2021/09/01 05:28:42;;;;;;;0.30;0.30;;;;;;;23.18;51.84;98652.00;6251867;22;20113;-65
2021/09/01 05:31:12;;;;;;;0.20;0.20;;;;;;;23.29;51.38;98649.66;6277482;22;20015;-68
2021/09/01 05:33:45;;;;;;;0.17;0.17;;;;;;;23.40;51.17;98656.28;6277525;22;20446;-65
2021/09/01 05:36:11;;;;;;;0.10;0.10;;;;;;;23.47;50.70;98648.34;6250652;22;20411;-66
2021/09/01 05:38:37;;;;;;;0.10;0.10;;;;;;;23.56;50.61;98645.31;6225474;22;20303;-62
2021/09/01 05:41:03;;;;;;;0.20;0.20;;;;;;;23.56;50.44;98637.31;6303531;22;20015;-66
2021/09/01 05:43:29;;;;;;;0.10;0.10;;;;;;;23.58;50.45;98637.16;6276311;22;20493;-65
2021/09/01 05:45:55;;;;;;;0.20;0.20;;;;;;;23.53;50.58;98628.91;6304285;22;20015;-67
2021/09/01 05:48:24;;;;;;;0.30;0.30;;;;;;;23.54;50.62;98634.03;6303523;22;20054;-66
2021/09/01 05:50:56;;;;;;;0.10;0.10;;;;;;;23.52;50.55;98638.75;6304377;22;20074;-65
2021/09/01 05:53:23;;;;;;;0.10;0.10;;;;;;;23.51;50.45;98628.28;6276627;22;20053;-64
2021/09/01 05:55:50;;;;;;;0.10;0.10;;;;;;;23.52;50.71;98633.44;6302891;22;20019;-63
2021/09/01 05:58:20;;;;;;;0.10;0.10;;;;;;;23.51;50.67;98634.44;6276051;22;20145;-64
2021/09/01 06:00:53;;;;;;;0.10;0.10;;;;;;;23.51;50.57;98626.44;6303813;22;20025;-66
2021/09/01 06:03:29;;;;;;;0.10;0.10;;;;;;;23.55;50.77;98627.72;6251468;22;20026;-65
2021/09/01 06:05:56;;;;;;;0.13;0.13;;;;;;;23.56;50.54;98621.34;6303362;22;20015;-63
2021/09/01 06:08:25;;;;;;;0.15;0.15;;;;;;;23.60;50.43;98625.25;6276803;22;20041;-66
2021/09/01 06:11:01;;;;;;;0.20;0.20;;;;;;;23.65;50.36;98617.50;6277358;22;20102;-68
2021/09/01 06:13:37;;;;;;;0.10;0.10;;;;;;;23.71;50.20;98610.56;6211470;22;20515;-64
2021/09/01 06:16:10;;;;;;;0.10;0.10;;;;;;;23.90;49.78;98625.00;6304289;22;20026;-67
2021/09/01 06:18:56;;;;;;;0.15;0.15;;;;;;;24.05;49.40;98607.81;6276774;22;20023;-67
2021/09/01 06:21:26;;;;;;;0.10;0.10;;;;;;;24.21;48.92;98609.34;6278263;22;20466;-67
2021/09/01 06:23:56;;;;;;;0.17;0.17;;;;;;;24.33;48.64;98599.72;6251490;22;20019;-64
2021/09/01 06:26:25;;;;;;;0.10;0.10;;;;;;;24.38;48.47;98590.06;6304335;22;20026;-66
2021/09/01 06:28:51;;;;;;;0.10;0.10;;;;;;;24.42;48.28;98587.00;6276417;22;20253;-67
2021/09/01 06:31:18;;;;;;;0.10;0.10;;;;;;;24.33;48.30;98562.38;6303900;22;20026;-64
2021/09/01 06:33:47;;;;;;;0.10;0.10;;;;;;;24.44;48.27;98566.28;6303853;22;20015;-64
2021/09/01 06:36:20;;;;;;;0.20;0.20;;;;;;;24.44;48.12;98560.94;6251334;22;20023;-66
2021/09/01 06:38:46;;;;;;;0.10;0.10;;;;;;;24.50;48.13;98565.47;6277851;22;20027;-68
2021/09/01 06:41:13;;;;;;;0.13;0.13;;;;;;;24.67;47.73;98570.16;6303098;22;20065;-67
2021/09/01 06:43:39;;;;;;;0.10;0.10;;;;;;;24.92;47.04;98573.09;6276772;22;20107;-66
2021/09/01 06:46:07;;;;;;;0.20;0.20;;;;;;;25.09;46.66;98568.13;6304377;22;20041;-65
2021/09/01 06:48:34;;;;;;;0.10;0.10;;;;;;;25.23;46.31;98559.03;6276075;22;20557;-68
2021/09/01 06:51:07;;;;;;;0.15;0.15;;;;;;;25.23;46.19;98556.38;6276543;22;20034;-66
2021/09/01 06:53:34;;;;;;;0.10;0.10;;;;;;;25.18;46.43;98556.19;6303047;22;20040;-65
2021/09/01 06:56:00;;;;;;;0.17;0.17;;;;;;;25.06;46.71;98552.53;6303268;22;20098;-66
2021/09/01 06:58:27;;;;;;;0.10;0.10;;;;;;;24.93;46.83;98557.91;6303071;22;20583;-66
2021/09/01 07:01:02;;;;;;;0.10;0.10;;;;;;;24.79;47.11;98557.88;6304167;22;20109;-65
2021/09/01 07:03:32;;;;;;;0.10;0.10;;;;;;;24.65;47.63;98566.06;6253481;22;20038;-67
2021/09/01 07:06:01;;;;;;;0.10;0.10;;;;;;;24.53;47.95;98568.53;6251279;22;20016;-61
2021/09/01 07:08:27;;;;;;;0.10;0.10;;;;;;;24.32;48.12;98534.84;6278107;22;20046;-65
2021/09/01 07:10:54;;;;;;;0.15;0.15;;;;;;;24.36;48.42;98551.28;6305890;22;20020;-65
2021/09/01 07:13:20;;;;;;;0.10;0.10;;;;;;;24.25;48.52;98541.19;6305615;22;20019;-65
2021/09/01 07:15:54;;;;;;;0.20;0.20;;;;;;;24.23;48.76;98548.59;6305664;22;20051;-67
2021/09/01 07:18:20;;;;;;;0.10;0.10;;;;;;;24.19;48.90;98545.50;6254649;22;20022;-64
2021/09/01 07:20:50;;;;;;;0.10;0.10;;;;;;;24.17;48.96;98544.09;6278540;22;20045;-63
2021/09/01 07:23:16;;;;;;;0.10;0.10;;;;;;;24.13;48.96;98541.00;6278467;22;20081;-64
2021/09/01 07:26:00;;;;;;;0.10;0.10;;;;;;;24.13;49.09;98541.00;6278847;22;20042;-69
2021/09/01 07:28:26;;;;;;;0.10;0.10;;;;;;;24.12;49.07;98534.00;6302143;22;20081;-64
2021/09/01 07:30:52;;;;;;;0.10;0.10;;;;;;;24.14;49.05;98536.47;6278012;22;20019;-67
2021/09/01 07:33:19;;;;;;;0.10;0.10;;;;;;;24.18;48.98;98527.06;6278213;22;20025;-64
2021/09/01 07:35:51;;;;;;;0.08;0.08;;;;;;;24.21;48.86;98524.78;6278240;22;20046;-68
2021/09/01 07:38:55;;;;;;;0.10;0.10;;;;;;;24.24;48.82;98516.41;6209228;22;20023;-67
2021/09/01 07:41:21;;;;;;;0.10;0.10;;;;;;;24.25;48.66;98515.34;6305050;22;20042;-67
2021/09/01 07:43:47;;;;;;;0.13;0.13;;;;;;;24.35;48.54;98528.28;6305407;22;20015;-63
2021/09/01 07:46:13;;;;;;;0.10;0.10;;;;;;;24.29;48.30;98497.09;6304471;22;20023;-64
2021/09/01 07:48:39;;;;;;;0.13;0.13;;;;;;;24.43;48.29;98520.09;6304959;22;20031;-64
2021/09/01 07:51:06;;;;;;;0.10;0.10;;;;;;;24.52;48.15;98520.69;6277427;22;20045;-65
2021/09/01 07:53:35;;;;;;;0.15;0.15;;;;;;;24.61;47.84;98528.28;6305111;22;20019;-66
2021/09/01 07:56:01;;;;;;;0.10;0.10;;;;;;;24.75;47.64;98513.91;6305400;22;20025;-69
2021/09/01 07:58:29;;;;;;;0.10;0.10;;;;;;;24.88;47.23;98515.78;6227370;22;20069;-66
2021/09/01 08:01:05;;;;;;;0.13;0.13;;;;;;;24.74;46.85;98468.72;6305720;22;20098;-68
2021/09/01 08:04:00;;;;;;;0.10;0.10;;;;;;;25.22;46.41;98514.69;6199466;22;20023;-65
2021/09/01 08:06:26;;;;;;;0.10;0.10;;;;;;;25.38;46.05;98514.22;6278349;22;20027;-65
2021/09/01 08:08:51;;;;;;;0.40;0.40;;;;;;;25.58;45.51;98504.28;6253001;22;20362;-65
2021/09/01 08:11:22;;;;;;;0.20;0.20;;;;;;;25.71;45.11;98498.88;6305374;22;20471;-66
2021/09/01 08:13:50;;;;;;;0.13;0.13;;;;;;;25.91;44.48;98501.44;6277664;22;20090;-64
2021/09/01 08:16:16;;;;;;;0.10;0.10;;;;;;;26.02;44.59;98497.22;6304049;22;20023;-63
2021/09/01 08:18:42;;;;;;;0.10;0.10;;;;;;;26.06;44.25;98490.44;6304240;22;20015;-62
2021/09/01 08:21:08;;;;;;;0.10;0.10;;;;;;;25.95;44.40;98467.84;6276791;22;20387;-62
2021/09/01 08:23:34;;;;;;;0.20;0.20;;;;;;;25.98;44.78;98477.31;6304219;22;20022;-63
2021/09/01 08:26:00;;;;;;;0.10;0.10;;;;;;;25.85;44.71;98471.00;6304238;22;20385;-62
2021/09/01 08:28:26;;;;;;;0.10;0.10;;;;;;;25.78;44.71;98462.22;6303871;22;20046;-62
2021/09/01 08:30:52;;;;;;;0.20;0.20;;;;;;;25.75;45.07;98467.97;6304154;22;20043;-62
2021/09/01 08:33:18;;;;;;;0.10;0.10;;;;;;;25.68;45.33;98463.72;6304116;22;20167;-62
2021/09/01 08:35:44;;;;;;;0.13;0.13;;;;;;;25.63;45.25;98469.69;6304157;22;20782;-62
2021/09/01 08:38:11;;;;;;;0.50;0.50;;;;;;;25.49;45.54;98451.25;6304317;22;20022;-61
2021/09/01 08:40:37;;;;;;;0.22;0.22;;;;;;;25.51;45.68;98471.41;6303738;22;20018;-67
2021/09/01 08:43:03;;;;;;;0.20;0.20;;;;;;;25.40;45.85;98475.53;6276883;22;20039;-68
2021/09/01 08:45:29;;;;;;;0.10;0.10;;;;;;;25.35;46.23;98490.59;6276492;22;20051;-67
2021/09/01 08:47:55;;;;;;;0.10;0.10;;;;;;;25.19;46.41;98489.22;6303938;22;20072;-68
2021/09/01 08:50:21;;;;;;;0.17;0.17;;;;;;;25.12;46.72;98492.91;6304162;22;20022;-67
2021/09/01 08:52:48;;;;;;;0.10;0.10;;;;;;;25.07;46.82;98492.72;6277013;22;20454;-67
2021/09/01 08:55:14;;;;;;;0.20;0.20;;;;;;;25.03;46.83;98492.31;6303929;22;20023;-69
2021/09/01 08:57:41;;;;;;;0.00;0.00;;;;;;;25.00;46.89;98483.94;6303809;22;20333;-67
2021/09/01 09:00:08;;;;;;;0.20;0.20;;;;;;;25.03;47.06;98484.28;6303997;22;20012;-68
2021/09/01 09:02:34;;;;;;;0.20;0.20;;;;;;;25.00;46.97;98484.72;6303777;22;20015;-67
2021/09/01 09:05:05;;;;;;;0.30;0.30;;;;;;;25.07;46.94;98492.72;6276884;22;20408;-69
2021/09/01 09:07:41;;;;;;;0.10;0.10;;;;;;;25.09;46.88;98471.97;6303851;22;20019;-69
2021/09/01 09:10:24;;;;;;;0.20;0.20;;;;;;;25.20;46.69;98471.31;6279023;22;20289;-67
2021/09/01 09:12:55;;;;;;;0.10;0.10;;;;;;;25.31;46.34;98476.00;6303909;22;20458;-68
2021/09/01 09:15:21;;;;;;;0.10;0.10;;;;;;;25.48;46.06;98466.47;6303432;22;20609;-67
2021/09/01 09:17:47;;;;;;;0.10;0.10;;;;;;;25.65;45.40;98456.13;6276689;22;20201;-66
2021/09/01 09:20:13;;;;;;;0.17;0.17;;;;;;;25.88;45.16;98473.25;6303854;22;20363;-67
2021/09/01 09:22:40;;;;;;;0.10;0.10;;;;;;;26.13;44.24;98465.28;6303538;22;20098;-67
2021/09/01 09:25:11;;;;;;;0.10;0.10;;;;;;;26.23;44.08;98456.78;6303762;22;20038;-66
2021/09/01 09:27:42;;;;;;;0.75;0.75;;;;;;;26.34;43.82;98458.75;6276278;22;20095;-67
2021/09/01 09:30:23;;;;;;;0.75;0.75;;;;;;;26.40;43.67;98453.34;6276226;22;20030;-68
2021/09/01 09:33:07;;;;;;;0.10;0.10;;;;;;;26.47;43.48;98447.94;6303628;22;20052;-66
2021/09/01 09:35:56;;;;;;;0.30;0.30;;;;;;;26.56;43.20;98446.63;6250399;22;20023;-67
2021/09/01 09:38:41;;;;;;;0.10;0.10;;;;;;;26.64;43.32;98443.63;6303445;22;20081;-64
2021/09/01 09:41:28;;;;;;;0.10;0.10;;;;;;;26.74;43.19;98440.44;6303739;22;20432;-64
2021/09/01 09:44:00;;;;;;;0.10;0.10;;;;;;;26.79;42.81;98443.28;6303709;22;20019;-64
2021/09/01 09:46:26;;;;;;;0.10;0.10;;;;;;;26.80;42.69;98435.00;6277124;22;20023;-64
2021/09/01 09:48:53;;;;;;;0.10;0.10;;;;;;;26.93;42.40;98434.91;6303448;22;20029;-64
2021/09/01 09:51:20;;;;;;;0.10;0.10;;;;;;;27.06;42.34;98438.50;6303439;22;20019;-64
2021/09/01 09:53:50;;;;;;;0.13;0.13;;;;;;;27.19;41.65;98428.41;6303495;22;20019;-63
2021/09/01 09:56:20;;;;;;;0.20;0.20;;;;;;;27.30;41.55;98424.16;6304605;22;20095;-67
2021/09/01 09:58:53;;;;;;;0.10;0.10;;;;;;;27.38;41.24;98423.84;6251356;22;20128;-66
2021/09/01 10:01:21;;;;;;;0.10;0.10;;;;;;;27.39;41.54;98420.94;6304178;22;20824;-65
2021/09/01 10:03:48;;;;;;;0.10;0.10;;;;;;;27.38;41.09;98410.44;6304440;22;20015;-67
2021/09/01 10:06:18;;;;;;;0.10;0.10;;;;;;;27.44;41.17;98420.28;6303415;22;20491;-66
2021/09/01 10:08:53;;;;;;;0.20;0.20;;;;;;;27.45;41.07;98419.25;6226705;22;20019;-64
2021/09/01 10:11:23;;;;;;;0.65;0.28;;;;;;;27.40;41.04;98411.84;6304247;22;20019;-67
2021/09/01 10:13:53;;;;;;;0.10;0.10;;;;;;;27.42;41.23;98420.47;6304173;22;20075;-67
2021/09/01 10:16:22;;;;;;;0.22;0.22;;;;;;;27.39;41.32;98414.75;6277919;22;20046;-66
2021/09/01 10:19:05;;;;;;;0.30;0.30;;;;;;;27.22;41.44;98411.09;6304108;22;20362;-66
2021/09/01 10:21:33;;;;;;;0.10;0.10;;;;;;;27.17;41.72;98402.88;6277468;22;20022;-67
2021/09/01 10:24:25;;;;;;;0.25;0.25;;;;;;;27.06;41.97;98403.66;6304037;22;20455;-67
2021/09/01 10:27:12;;;;;;;0.17;0.17;;;;;;;26.92;42.10;98395.78;6229521;22;20477;-66
2021/09/01 10:29:41;;;;;;;0.32;0.32;;;;;;;26.78;42.68;98396.13;6304102;22;20019;-66
2021/09/01 10:32:30;;;;;;;0.30;0.30;;;;;;;26.62;42.96;98394.03;6276981;22;20551;-66
2021/09/01 10:35:15;;;;;;;0.10;0.10;;;;;;;26.48;43.52;98390.66;6261882;22;20466;-64
2021/09/01 10:37:49;;;;;;;0.10;0.10;;;;;;;26.45;43.57;98388.44;6303857;22;20090;-66
2021/09/01 10:40:24;;;;;;;0.10;0.10;;;;;;;26.54;43.53;98386.31;6304580;22;20019;-67
2021/09/01 10:43:08;;;;;;;0.10;0.10;;;;;;;26.68;43.38;98391.28;6276131;22;20047;-68
2021/09/01 10:45:48;;;;;;;0.20;0.20;;;;;;;26.80;43.10;98386.81;6276092;22;20019;-65
2021/09/01 10:48:20;;;;;;;0.10;0.10;;;;;;;26.84;42.74;98381.84;6303564;22;20362;-66
2021/09/01 10:50:51;;;;;;;0.10;0.10;;;;;;;26.89;42.79;98390.88;6251954;22;20084;-67
2021/09/01 10:53:46;;;;;;;0.20;0.20;;;;;;;26.85;42.55;98384.31;6303994;22;20038;-67
2021/09/01 10:56:21;;;;;;;0.10;0.10;;;;;;;26.82;42.88;98387.44;6303792;22;20023;-67
2021/09/01 10:58:52;;;;;;;0.10;0.10;;;;;;;26.84;42.69;98398.75;6276339;22;20019;-69
2021/09/01 11:02:07;;;;;;;0.10;0.10;;;;;;;26.83;42.69;98402.47;6259173;22;20019;-66
2021/09/01 11:04:53;;;;;;;0.20;0.20;;;;;;;26.79;42.59;98400.44;6199354;22;20030;-68
2021/09/01 11:07:32;;;;;;;0.20;0.20;;;;;;;26.68;42.92;98409.19;6304738;22;20355;-68
2021/09/01 11:10:05;;;;;;;0.10;0.10;;;;;;;26.50;43.21;98403.84;6251528;22;20409;-67
2021/09/01 11:13:11;;;;;;;0.10;0.10;;;;;;;26.28;43.47;98398.06;6276173;22;20039;-65
2021/09/01 11:15:45;;;;;;;0.10;0.10;;;;;;;26.05;44.19;98397.81;6304311;22;20019;-66
2021/09/01 11:18:12;;;;;;;0.10;0.10;;;;;;;25.86;44.69;98394.28;6252640;22;20015;-69
2021/09/01 11:20:52;;;;;;;0.10;0.10;;;;;;;25.74;44.95;98391.50;6251815;22;20015;-64
2021/09/01 11:23:34;;;;;;;0.10;0.10;;;;;;;25.66;45.15;98396.25;6304681;22;20169;-66
2021/09/01 11:26:03;;;;;;;0.15;0.15;;;;;;;25.62;45.42;98385.19;6277136;22;20046;-69
2021/09/01 11:28:29;;;;;;;0.10;0.10;;;;;;;25.56;45.27;98382.56;6304959;22;20015;-66
2021/09/01 11:30:56;;;;;;;0.20;0.20;;;;;;;25.60;45.38;98391.78;6276423;22;20023;-69
2021/09/01 11:33:25;;;;;;;0.10;0.10;;;;;;;25.56;45.27;98394.06;6253051;22;20019;-70
2021/09/01 11:35:54;;;;;;;0.10;0.10;;;;;;;25.52;45.32;98400.06;6278349;22;20023;-66
2021/09/01 11:38:46;;;;;;;1.00;0.47;;;;;;;25.50;45.69;98397.59;6302696;22;20487;-69
2021/09/01 11:41:13;;;;;;;0.10;0.10;;;;;;;25.48;45.74;98391.63;6303821;22;20019;-64
2021/09/01 11:43:38;;;;;;;0.10;0.10;;;;;;;25.52;45.88;98384.88;6250044;22;20019;-64
2021/09/01 11:46:05;;;;;;;0.10;0.10;;;;;;;25.58;45.80;98375.97;6276078;22;20019;-66
2021/09/01 11:48:55;;;;;;;0.10;0.10;;;;;;;25.56;45.81;98369.19;6279590;22;20383;-70
2021/09/01 11:51:24;;;;;;;0.10;0.10;;;;;;;25.52;46.33;98376.84;6276990;22;20023;-67
2021/09/01 11:53:50;;;;;;;0.22;0.22;;;;;;;25.50;46.33;98378.06;6251038;22;20019;-67
2021/09/01 11:56:16;;;;;;;0.10;0.10;;;;;;;25.50;46.50;98368.19;6304005;22;20045;-68
2021/09/01 11:58:54;;;;;;;0.20;0.20;;;;;;;25.51;46.38;98372.53;6303645;22;20374;-65
2021/09/01 12:01:22;;;;;;;0.10;0.10;;;;;;;25.49;46.31;98361.19;6277697;22;20096;-68
2021/09/01 12:03:48;;;;;;;0.10;0.10;;;;;;;25.47;46.38;98347.22;6250310;22;20093;-64
2021/09/01 12:06:14;;;;;;;0.10;0.10;;;;;;;25.59;46.12;98356.22;6247934;22;20058;-63
2021/09/01 12:08:47;;;;;;;0.10;0.10;;;;;;;25.64;45.89;98348.38;6224061;22;20019;-67
2021/09/01 12:11:17;;;;;;;0.10;0.10;;;;;;;25.71;45.75;98354.50;6224579;22;20482;-66
2021/09/01 12:13:45;;;;;;;0.10;0.10;;;;;;;25.75;45.51;98330.81;6302122;22;20042;-67
2021/09/01 12:16:11;;;;;;;0.10;0.10;;;;;;;25.70;45.54;98320.75;6303621;22;20023;-61
2021/09/01 12:18:57;;;;;;;0.10;0.10;;;;;;;25.79;45.29;98340.84;6304920;22;20011;-65
2021/09/01 12:21:25;;;;;;;0.10;0.10;;;;;;;25.84;45.80;98327.66;6303922;22;20338;-64
2021/09/01 12:24:12;;;;;;;0.25;0.20;;;;;;;25.86;45.33;98333.59;6278381;22;20015;-65
2021/09/01 12:26:52;;;;;;;0.10;0.10;;;;;;;25.83;45.67;98354.59;6304500;22;20449;-63
2021/09/01 12:29:48;;;;;;;0.10;0.10;;;;;;;25.70;45.84;98344.81;6305486;22;20090;-62
2021/09/01 12:32:18;;;;;;;0.10;0.10;;;;;;;25.46;46.40;98361.59;6276936;22;20149;-62
2021/09/01 12:34:45;;;;;;;0.52;0.52;;;;;;;25.16;47.31;98356.03;6277923;22;20019;-67